createdAt,value
2023-02-25T00:00:19.928Z,98955.31
2023-02-25T00:02:43.605Z,98953.13
2023-02-25T00:05:07.700Z,98951.84
2023-02-25T00:07:32.063Z,98955.94
2023-02-25T00:09:55.648Z,98960.22
2023-02-25T00:12:19.219Z,98965.91
2023-02-25T00:14:44.169Z,98974.88
2023-02-25T00:17:07.791Z,98960.72
2023-02-25T00:19:31.474Z,98956.84
2023-02-25T00:21:54.998Z,98962.56
2023-02-25T00:24:18.775Z,98968.66
2023-02-25T00:26:42.358Z,98955.97
2023-02-25T00:29:06.748Z,98952.59
2023-02-25T00:31:31.939Z,98948.06
2023-02-25T00:33:55.775Z,98953.81
2023-02-25T00:36:23.887Z,98948.38
2023-02-25T00:38:48.582Z,98947.06
2023-02-25T00:41:13.295Z,98947.53
2023-02-25T00:43:36.907Z,98952.84
2023-02-25T00:46:01.014Z,98951.78
2023-02-25T00:48:26.034Z,98956.50
2023-02-25T00:50:49.589Z,98948.94
2023-02-25T00:53:13.138Z,98946.06
2023-02-25T00:55:36.713Z,98950.94
2023-02-25T00:58:01.838Z,98941.53
2023-02-25T01:00:25.709Z,98938.53
2023-02-25T01:02:49.372Z,98932.75
2023-02-25T01:05:16.527Z,98938.38
2023-02-25T01:07:40.357Z,98935.66
2023-02-25T01:10:03.926Z,98932.44
2023-02-25T01:12:27.722Z,98928.72
2023-02-25T01:14:51.281Z,98927.81
2023-02-25T01:17:14.877Z,98932.44
2023-02-25T01:19:38.454Z,98929.97
2023-02-25T01:22:04.107Z,98929.16
2023-02-25T01:24:31.122Z,98930.28
2023-02-25T01:26:57.235Z,98931.84
2023-02-25T01:29:26.394Z,98927.13
2023-02-25T01:31:53.305Z,98932.53
2023-02-25T01:34:19.168Z,98938.88
2023-02-25T01:36:43.312Z,98934.69
2023-02-25T01:39:09.939Z,98928.41
2023-02-25T01:41:36.890Z,98924.44
2023-02-25T01:44:13.437Z,98930.50
2023-02-25T01:46:38.082Z,98918.31
2023-02-25T01:49:03.046Z,98924.44
2023-02-25T01:51:28.548Z,98925.69
2023-02-25T01:53:52.140Z,98932.47
2023-02-25T01:56:21.934Z,98927.09
2023-02-25T01:58:46.299Z,98922.25
2023-02-25T02:01:12.875Z,98924.34
2023-02-25T02:03:37.485Z,98929.25
2023-02-25T02:06:11.918Z,98925.38
2023-02-25T02:08:37.887Z,98931.00
2023-02-25T02:11:01.631Z,98935.34
2023-02-25T02:13:28.497Z,98929.81
2023-02-25T02:16:09.442Z,98928.63
2023-02-25T02:18:36.867Z,98932.88
2023-02-25T02:21:17.977Z,98916.94
2023-02-25T02:24:19.246Z,98927.16
2023-02-25T02:26:58.493Z,98929.25
2023-02-25T02:30:03.881Z,98924.78
2023-02-25T02:32:37.256Z,98929.97
2023-02-25T02:35:14.413Z,98936.19
2023-02-25T02:37:45.154Z,98937.84
2023-02-25T02:40:29.029Z,98929.78
2023-02-25T02:43:07.676Z,98930.44
2023-02-25T02:45:40.758Z,98930.84
2023-02-25T02:48:11.281Z,98940.03
2023-02-25T02:50:40.084Z,98940.19
2023-02-25T02:53:11.198Z,98948.06
2023-02-25T02:55:38.788Z,98951.47
2023-02-25T02:58:08.021Z,98951.06
2023-02-25T03:00:39.263Z,98950.44
2023-02-25T03:03:09.360Z,98968.84
2023-02-25T03:05:35.707Z,98960.50
2023-02-25T03:08:06.975Z,98959.72
2023-02-25T03:10:33.503Z,98967.00
2023-02-25T03:12:57.165Z,98965.16
2023-02-25T03:15:20.838Z,98974.97
2023-02-25T03:17:48.594Z,98971.63
2023-02-25T03:20:18.562Z,98980.28
2023-02-25T03:22:48.147Z,98988.38
2023-02-25T03:25:19.312Z,98982.72
2023-02-25T03:27:45.731Z,98985.81
2023-02-25T03:30:20.189Z,98992.50
2023-02-25T03:32:49.162Z,98991.19
2023-02-25T03:35:16.405Z,98993.78
2023-02-25T03:37:43.597Z,99000.03
2023-02-25T03:40:12.314Z,99007.81
2023-02-25T03:42:37.133Z,99020.16
2023-02-25T03:45:05.610Z,99014.34
2023-02-25T03:47:31.636Z,99021.13
2023-02-25T03:50:02.005Z,99020.25
2023-02-25T03:52:28.726Z,99021.00
2023-02-25T03:54:58.895Z,99022.75
2023-02-25T03:57:25.727Z,99025.59
2023-02-25T03:59:49.970Z,99020.25
2023-02-25T04:02:15.186Z,99024.63
2023-02-25T04:04:38.854Z,99031.75
2023-02-25T04:07:02.888Z,99045.13
2023-02-25T04:09:27.972Z,99044.44
2023-02-25T04:11:57.026Z,99058.03
2023-02-25T04:14:21.004Z,99063.44
2023-02-25T04:16:46.083Z,99066.41
2023-02-25T04:19:09.680Z,99067.38
2023-02-25T04:21:36.288Z,99072.81
2023-02-25T04:24:00.776Z,99073.50
2023-02-25T04:26:26.219Z,99075.00
2023-02-25T04:28:49.827Z,99088.84
2023-02-25T04:31:13.613Z,99081.00
2023-02-25T04:33:37.190Z,99087.53
2023-02-25T04:36:00.758Z,99098.97
2023-02-25T04:38:24.353Z,99094.75
2023-02-25T04:40:48.019Z,99094.63
2023-02-25T04:43:13.162Z,99113.25
2023-02-25T04:45:36.726Z,99106.84
2023-02-25T04:48:00.323Z,99104.56
2023-02-25T04:50:23.962Z,99110.31
2023-02-25T04:52:48.007Z,99112.63
2023-02-25T04:55:12.386Z,99103.81
2023-02-25T04:57:38.213Z,99108.28
2023-02-25T05:00:10.461Z,99112.63
2023-02-25T05:02:34.663Z,99106.09
2023-02-25T05:04:58.304Z,99109.72
2023-02-25T05:07:21.989Z,99107.31
2023-02-25T05:09:45.521Z,99123.13
2023-02-25T05:12:09.424Z,99112.53
2023-02-25T05:14:33.210Z,99117.69
2023-02-25T05:16:58.685Z,99119.13
2023-02-25T05:19:24.649Z,99120.34
2023-02-25T05:21:48.248Z,99122.53
2023-02-25T05:24:12.573Z,99117.72
2023-02-25T05:26:36.172Z,99127.22
2023-02-25T05:29:00.745Z,99129.41
2023-02-25T05:31:26.191Z,99136.50
2023-02-25T05:33:51.422Z,99139.44
2023-02-25T05:36:16.868Z,99133.88
2023-02-25T05:38:40.822Z,99143.63
2023-02-25T05:41:05.983Z,99149.78
2023-02-25T05:43:29.530Z,99150.16
2023-02-25T05:45:56.353Z,99151.50
2023-02-25T05:48:19.916Z,99157.91
2023-02-25T05:50:44.857Z,99161.38
2023-02-25T05:53:09.484Z,99172.25
2023-02-25T05:55:33.079Z,99177.06
2023-02-25T05:57:56.576Z,99181.56
2023-02-25T06:00:21.624Z,99184.16
2023-02-25T06:02:45.429Z,99188.25
2023-02-25T06:05:09.931Z,99189.84
2023-02-25T06:07:35.492Z,99204.06
2023-02-25T06:10:01.077Z,99202.38
2023-02-25T06:12:24.667Z,99206.75
2023-02-25T06:14:48.201Z,99211.13
2023-02-25T06:17:11.901Z,99215.50
2023-02-25T06:19:35.502Z,99231.53
2023-02-25T06:21:59.041Z,99236.97
2023-02-25T06:24:24.694Z,99231.13
2023-02-25T06:26:48.477Z,99239.75
2023-02-25T06:29:12.205Z,99246.53
2023-02-25T06:31:35.758Z,99244.31
2023-02-25T06:33:59.395Z,99254.31
2023-02-25T06:36:23.403Z,99259.09
2023-02-25T06:38:47.141Z,99262.59
2023-02-25T06:41:16.731Z,99274.03
2023-02-25T06:43:40.403Z,99269.50
2023-02-25T06:46:07.765Z,99284.03
2023-02-25T06:48:31.440Z,99280.22
2023-02-25T06:50:54.989Z,99287.44
2023-02-25T06:53:18.588Z,99304.81
2023-02-25T06:55:42.179Z,99314.38
2023-02-25T06:58:07.340Z,99312.06
2023-02-25T07:00:30.924Z,99313.88
2023-02-25T07:02:54.595Z,99311.59
2023-02-25T07:05:18.489Z,99320.47
2023-02-25T07:07:42.126Z,99318.53
2023-02-25T07:10:07.091Z,99323.13
2023-02-25T07:12:31.260Z,99337.97
2023-02-25T07:14:56.245Z,99336.72
2023-02-25T07:17:19.847Z,99350.66
2023-02-25T07:19:43.401Z,99350.97
2023-02-25T07:22:09.942Z,99357.84
2023-02-25T07:24:33.596Z,99360.38
2023-02-25T07:26:57.173Z,99360.59
2023-02-25T07:29:20.692Z,99372.50
2023-02-25T07:31:46.149Z,99370.97
2023-02-25T07:34:11.240Z,99378.38
2023-02-25T07:36:37.917Z,99376.44
2023-02-25T07:39:02.038Z,99383.97
2023-02-25T07:41:25.702Z,99387.13
2023-02-25T07:43:49.304Z,99392.72
2023-02-25T07:46:14.370Z,99396.31
2023-02-25T07:48:39.383Z,99399.28
2023-02-25T07:51:07.526Z,99393.09
2023-02-25T07:53:31.038Z,99413.94
2023-02-25T07:55:54.618Z,99405.41
2023-02-25T07:58:18.206Z,99408.41
2023-02-25T08:00:45.135Z,99416.94
2023-02-25T08:03:09.368Z,99418.31
2023-02-25T08:05:37.223Z,99414.59
2023-02-25T08:08:00.750Z,99413.72
2023-02-25T08:10:24.369Z,99430.03
2023-02-25T08:12:47.889Z,99422.19
2023-02-25T08:15:12.689Z,99422.25
2023-02-25T08:17:36.429Z,99438.84
2023-02-25T08:20:00.092Z,99438.28
2023-02-25T08:22:25.025Z,99439.53
2023-02-25T08:24:48.602Z,99444.84
2023-02-25T08:27:12.179Z,99452.22
2023-02-25T08:29:36.767Z,99451.63
2023-02-25T08:32:00.497Z,99458.19
2023-02-25T08:34:24.230Z,99463.78
2023-02-25T08:36:47.843Z,99458.25
2023-02-25T08:39:13.010Z,99471.28
2023-02-25T08:41:36.542Z,99473.88
2023-02-25T08:44:02.011Z,99470.84
2023-02-25T08:46:30.313Z,99480.00
2023-02-25T08:48:55.509Z,99480.19
2023-02-25T08:51:20.826Z,99483.72
2023-02-25T08:53:44.538Z,99494.31
2023-02-25T08:56:12.001Z,99507.09
2023-02-25T08:58:35.921Z,99502.38
2023-02-25T09:00:59.508Z,99515.22
2023-02-25T09:03:23.172Z,99519.97
2023-02-25T09:05:53.234Z,99525.78
2023-02-25T09:08:16.829Z,99519.59
2023-02-25T09:10:49.780Z,99531.78
2023-02-25T09:13:17.280Z,99536.31
2023-02-25T09:15:40.905Z,99533.38
2023-02-25T09:18:04.598Z,99539.13
2023-02-25T09:20:28.226Z,99553.41
2023-02-25T09:22:51.839Z,99543.53
2023-02-25T09:25:15.397Z,99547.28
2023-02-25T09:27:39.024Z,99552.00
2023-02-25T09:30:03.983Z,99556.31
2023-02-25T09:32:27.716Z,99562.50
2023-02-25T09:34:51.396Z,99566.59
2023-02-25T09:37:14.943Z,99567.69
2023-02-25T09:39:38.540Z,99577.16
2023-02-25T09:42:09.432Z,99573.81
2023-02-25T09:44:37.684Z,99577.00
2023-02-25T09:47:07.175Z,99582.91
2023-02-25T09:49:35.380Z,99589.69
2023-02-25T09:52:05.866Z,99590.72
2023-02-25T09:54:35.986Z,99588.38
2023-02-25T09:57:03.000Z,99614.88
2023-02-25T09:59:30.187Z,99624.66
2023-02-25T10:01:59.201Z,99605.25
2023-02-25T10:04:33.669Z,99628.66
2023-02-25T10:06:58.623Z,99631.06
2023-02-25T10:09:33.507Z,99641.28
2023-02-25T10:12:10.010Z,99647.13
2023-02-25T10:14:55.821Z,99642.41
2023-02-25T10:17:28.971Z,99656.38
2023-02-25T10:20:40.314Z,99653.66
2023-02-25T10:23:10.631Z,99654.41
2023-02-25T10:25:39.156Z,99665.84
2023-02-25T10:28:07.554Z,99669.22
2023-02-25T10:30:48.398Z,99670.09
2023-02-25T10:33:21.430Z,99665.94
2023-02-25T10:35:46.498Z,99678.38
2023-02-25T10:38:12.777Z,99673.91
2023-02-25T10:40:36.394Z,99676.97
2023-02-25T10:43:06.107Z,99666.19
2023-02-25T10:45:32.196Z,99685.81
2023-02-25T10:48:05.678Z,99684.63
2023-02-25T10:50:43.264Z,99683.81
2023-02-25T10:53:17.800Z,99690.53
2023-02-25T10:55:52.803Z,99686.94
2023-02-25T10:58:34.917Z,99696.47
2023-02-25T11:01:03.952Z,99699.59
2023-02-25T11:03:31.029Z,99701.22
2023-02-25T11:06:10.102Z,99706.41
2023-02-25T11:08:36.919Z,99707.22
2023-02-25T11:11:06.524Z,99708.72
2023-02-25T11:13:32.736Z,99711.09
2023-02-25T11:15:56.340Z,99712.94
2023-02-25T11:18:24.275Z,99722.19
2023-02-25T11:20:54.135Z,99727.44
2023-02-25T11:23:25.177Z,99731.69
2023-02-25T11:25:53.843Z,99738.91
2023-02-25T11:28:28.807Z,99732.22
2023-02-25T11:30:52.715Z,99733.81
2023-02-25T11:33:26.001Z,99735.56
2023-02-25T11:35:59.854Z,99741.16
2023-02-25T11:38:29.119Z,99740.06
2023-02-25T11:40:54.391Z,99758.22
2023-02-25T11:45:57.289Z,99759.75
2023-02-25T11:48:26.159Z,99749.00
2023-02-25T11:50:58.078Z,99758.56
2023-02-25T11:53:36.913Z,99770.88
2023-02-25T11:56:10.659Z,99771.19
2023-02-25T11:58:51.260Z,99771.28
2023-02-25T12:01:24.876Z,99774.25
2023-02-25T12:04:20.981Z,99775.88
2023-02-25T12:07:07.321Z,99780.75
2023-02-25T12:10:09.642Z,99786.78
2023-02-25T12:13:33.877Z,99788.84
2023-02-25T12:17:02.279Z,99795.84
2023-02-25T12:20:20.660Z,99806.44
2023-02-25T12:23:29.868Z,99818.88
2023-02-25T12:26:06.497Z,99812.63
2023-02-25T12:28:52.319Z,99820.53
2023-02-25T12:31:56.728Z,99820.78
2023-02-25T12:35:08.457Z,99831.94
2023-02-25T12:38:06.370Z,99836.94
2023-02-25T12:40:56.536Z,99837.00
2023-02-25T12:43:31.492Z,99837.91
2023-02-25T12:46:31.403Z,99846.53
2023-02-25T12:49:45.054Z,99860.31
2023-02-25T12:52:39.478Z,99869.88
2023-02-25T12:55:44.083Z,99881.88
2023-02-25T12:58:42.216Z,99885.75
2023-02-25T13:01:28.193Z,99896.03
2023-02-25T13:04:30.375Z,99897.06
2023-02-25T13:07:27.841Z,99910.81
2023-02-25T13:10:13.132Z,99900.38
2023-02-25T13:12:57.760Z,99903.69
2023-02-25T13:15:27.090Z,99905.22
2023-02-25T13:18:18.397Z,99912.13
2023-02-25T13:21:12.034Z,99906.22
2023-02-25T13:24:12.961Z,99907.78
2023-02-25T13:27:24.660Z,99915.63
2023-02-25T13:30:21.126Z,99912.78
2023-02-25T13:33:02.358Z,99921.38
2023-02-25T13:35:40.885Z,99928.84
2023-02-25T13:38:21.312Z,99941.28
2023-02-25T13:41:04.083Z,99931.91
2023-02-25T13:43:48.183Z,99946.31
2023-02-25T13:46:38.082Z,99956.00
2023-02-25T13:49:26.089Z,99957.47
2023-02-25T13:52:26.129Z,99965.66
2023-02-25T13:55:40.006Z,99973.66
2023-02-25T13:58:44.376Z,99975.44
2023-02-25T14:01:39.071Z,99972.56
2023-02-25T14:04:36.565Z,99976.81
2023-02-25T14:07:37.443Z,99985.81
2023-02-25T14:10:20.934Z,99988.09
2023-02-25T14:13:03.937Z,100002.19
2023-02-25T14:15:43.966Z,99993.00
2023-02-25T14:18:56.473Z,99988.19
2023-02-25T14:22:16.752Z,99997.75
2023-02-25T14:24:48.518Z,100003.34
2023-02-25T14:27:26.667Z,100001.53
2023-02-25T14:30:11.016Z,100006.66
2023-02-25T14:32:52.121Z,100012.41
2023-02-25T14:35:40.887Z,100019.25
2023-02-25T14:38:11.491Z,100029.75
2023-02-25T14:40:46.318Z,100023.59
2023-02-25T14:43:32.682Z,100022.66
2023-02-25T14:46:03.218Z,100034.41
2023-02-25T14:48:36.634Z,100032.72
2023-02-25T14:51:27.674Z,100040.81
2023-02-25T14:54:46.193Z,100041.41
2023-02-25T14:58:00.370Z,100044.72
2023-02-25T15:00:59.092Z,100046.34
2023-02-25T15:03:50.766Z,100055.16
2023-02-25T15:07:00.456Z,100072.78
2023-02-25T15:10:20.611Z,100074.78
2023-02-25T15:13:19.299Z,100077.44
2023-02-25T15:16:30.306Z,100078.19
2023-02-25T15:19:23.432Z,100093.25
2023-02-25T15:21:49.245Z,100095.69
2023-02-25T15:24:40.300Z,100097.72
2023-02-25T15:27:48.425Z,100107.28
2023-02-25T15:30:16.858Z,100100.38
2023-02-25T15:33:23.088Z,100106.53
2023-02-25T15:36:03.328Z,100128.50
2023-02-25T15:38:47.695Z,100124.56
2023-02-25T15:41:42.265Z,100138.13
2023-02-25T15:44:39.088Z,100149.47
2023-02-25T15:47:25.167Z,100151.38
2023-02-25T15:49:50.984Z,100159.31
2023-02-25T15:52:54.630Z,100159.16
2023-02-25T15:55:38.621Z,100165.22
2023-02-25T15:58:02.727Z,100170.50
2023-02-25T16:00:54.241Z,100181.72
2023-02-25T16:03:41.328Z,100180.59
2023-02-25T16:06:08.008Z,100194.78
2023-02-25T16:08:40.188Z,100193.47
2023-02-25T16:11:05.325Z,100193.19
2023-02-25T16:13:33.117Z,100202.91
2023-02-25T16:15:58.522Z,100205.88
2023-02-25T16:18:33.068Z,100209.56
2023-02-25T16:21:04.423Z,100218.34
2023-02-25T16:23:29.163Z,100214.47
2023-02-25T16:26:02.949Z,100222.25
2023-02-25T16:28:45.081Z,100233.63
2023-02-25T16:31:19.687Z,100239.25
2023-02-25T16:33:53.473Z,100241.69
2023-02-25T16:36:25.979Z,100252.56
2023-02-25T16:38:58.210Z,100251.06
2023-02-25T16:41:27.868Z,100258.88
2023-02-25T16:43:54.113Z,100262.53
2023-02-25T16:46:21.540Z,100271.97
2023-02-25T16:48:52.424Z,100265.84
2023-02-25T16:51:25.310Z,100279.13
2023-02-25T16:53:55.001Z,100271.50
2023-02-25T16:56:23.439Z,100275.81
2023-02-25T16:59:02.652Z,100291.22
2023-02-25T17:01:27.608Z,100288.91
2023-02-25T17:03:54.308Z,100302.03
2023-02-25T17:06:20.709Z,100301.88
2023-02-25T17:08:47.269Z,100312.16
2023-02-25T17:11:13.518Z,100316.97
2023-02-25T17:13:42.036Z,100318.28
2023-02-25T17:16:07.260Z,100320.00
2023-02-25T17:18:34.592Z,100320.00
2023-02-25T17:21:06.848Z,100328.25
2023-02-25T17:23:31.356Z,100333.16
2023-02-25T17:25:55.208Z,100331.78
2023-02-25T17:28:23.197Z,100339.09
2023-02-25T17:30:47.584Z,100350.53
2023-02-25T17:33:24.639Z,100348.75
2023-02-25T17:35:50.923Z,100349.28
2023-02-25T17:38:20.581Z,100363.06
2023-02-25T17:40:44.845Z,100358.94
2023-02-25T17:43:21.587Z,100363.06
2023-02-25T17:45:50.162Z,100370.06
2023-02-25T17:48:18.669Z,100365.72
2023-02-25T17:50:42.313Z,100368.34
2023-02-25T17:53:06.910Z,100376.38
2023-02-25T17:55:36.057Z,100373.09
2023-02-25T17:58:01.810Z,100379.81
2023-02-25T18:00:31.936Z,100379.88
2023-02-25T18:03:17.682Z,100389.78
2023-02-25T18:05:52.314Z,100388.00
2023-02-25T18:08:21.721Z,100389.38
2023-02-25T18:11:03.510Z,100391.25
2023-02-25T18:13:35.199Z,100396.09
2023-02-25T18:16:39.131Z,100403.09
2023-02-25T18:19:02.976Z,100404.63
2023-02-25T18:21:27.020Z,100416.94
2023-02-25T18:23:51.960Z,100413.59
2023-02-25T18:26:19.967Z,100410.72
2023-02-25T18:28:45.325Z,100421.53
2023-02-25T18:31:09.960Z,100417.38
2023-02-25T18:33:33.871Z,100424.97
2023-02-25T18:35:57.666Z,100432.47
2023-02-25T18:38:24.944Z,100432.06
2023-02-25T18:40:49.851Z,100428.66
2023-02-25T18:43:18.654Z,100436.19
2023-02-25T18:45:42.351Z,100437.19
2023-02-25T18:48:05.984Z,100446.94
2023-02-25T18:50:32.334Z,100440.81
2023-02-25T18:52:56.200Z,100447.84
2023-02-25T18:55:25.310Z,100456.91
2023-02-25T18:57:49.165Z,100451.41
2023-02-25T19:00:16.898Z,100465.19
2023-02-25T19:02:49.566Z,100468.03
2023-02-25T19:05:13.520Z,100472.69
2023-02-25T19:07:38.318Z,100472.06
2023-02-25T19:10:02.025Z,100467.03
2023-02-25T19:12:28.034Z,100480.09
2023-02-25T19:14:57.508Z,100471.16
2023-02-25T19:17:22.426Z,100483.31
2023-02-25T19:19:46.487Z,100484.41
2023-02-25T19:22:12.200Z,100487.13
2023-02-25T19:24:35.726Z,100486.25
2023-02-25T19:27:01.116Z,100492.63
2023-02-25T19:29:25.050Z,100501.44
2023-02-25T19:31:48.717Z,100502.06
2023-02-25T19:34:13.696Z,100501.94
2023-02-25T19:36:37.262Z,100507.47
2023-02-25T19:39:00.780Z,100511.50
2023-02-25T19:41:24.450Z,100517.22
2023-02-25T19:43:47.984Z,100514.88
2023-02-25T19:46:11.953Z,100523.66
2023-02-25T19:48:35.537Z,100522.31
2023-02-25T19:51:00.505Z,100533.94
2023-02-25T19:53:24.208Z,100538.09
2023-02-25T19:55:47.776Z,100536.09
2023-02-25T19:58:11.354Z,100538.25
2023-02-25T20:00:34.968Z,100535.59
2023-02-25T20:02:58.844Z,100547.44
2023-02-25T20:05:23.776Z,100546.13
2023-02-25T20:07:48.876Z,100548.91
2023-02-25T20:10:14.337Z,100549.81
2023-02-25T20:12:38.101Z,100562.00
2023-02-25T20:15:01.644Z,100559.78
2023-02-25T20:17:26.086Z,100558.97
2023-02-25T20:19:50.365Z,100567.63
2023-02-25T20:22:13.901Z,100562.06
2023-02-25T20:24:39.029Z,100565.19
2023-02-25T20:27:03.040Z,100565.56
2023-02-25T20:29:27.035Z,100566.41
2023-02-25T20:31:50.708Z,100577.84
2023-02-25T20:34:18.058Z,100585.41
2023-02-25T20:36:50.158Z,100579.56
2023-02-25T20:39:40.703Z,100588.59
2023-02-25T20:42:06.158Z,100587.59
2023-02-25T20:44:29.961Z,100596.25
2023-02-25T20:46:53.920Z,100603.81
2023-02-25T20:49:20.425Z,100604.47
2023-02-25T20:51:46.358Z,100604.34
2023-02-25T20:54:11.143Z,100609.44
2023-02-25T20:56:36.273Z,100618.19
2023-02-25T20:58:59.792Z,100612.09
2023-02-25T21:01:23.776Z,100618.69
2023-02-25T21:03:47.358Z,100619.88
2023-02-25T21:06:12.808Z,100623.97
2023-02-25T21:08:36.345Z,100619.06
2023-02-25T21:11:00.010Z,100627.28
2023-02-25T21:13:25.238Z,100631.13
2023-02-25T21:15:48.864Z,100632.38
2023-02-25T21:18:12.420Z,100638.19
2023-02-25T21:20:36.022Z,100637.63
2023-02-25T21:22:59.584Z,100640.97
2023-02-25T21:25:23.139Z,100642.22
2023-02-25T21:27:46.645Z,100651.34
2023-02-25T21:30:13.396Z,100643.97
2023-02-25T21:32:36.932Z,100643.00
2023-02-25T21:35:00.564Z,100654.00
2023-02-25T21:37:24.129Z,100655.22
2023-02-25T21:39:47.688Z,100659.16
2023-02-25T21:42:11.225Z,100658.09
2023-02-25T21:44:34.877Z,100666.69
2023-02-25T21:46:59.817Z,100659.16
2023-02-25T21:49:23.604Z,100670.69
2023-02-25T21:51:47.177Z,100666.34
2023-02-25T21:54:10.855Z,100672.16
2023-02-25T21:56:34.774Z,100679.88
2023-02-25T21:59:00.538Z,100679.44
2023-02-25T22:01:26.239Z,100677.78
2023-02-25T22:03:51.485Z,100679.25
2023-02-25T22:06:15.973Z,100676.59
2023-02-25T22:08:40.479Z,100689.72
2023-02-25T22:11:04.966Z,100686.59
2023-02-25T22:13:33.685Z,100689.56
2023-02-25T22:15:57.205Z,100687.78
2023-02-25T22:18:20.818Z,100694.09
2023-02-25T22:20:45.760Z,100694.72
2023-02-25T22:23:09.316Z,100705.81
2023-02-25T22:25:33.332Z,100703.59
2023-02-25T22:27:56.895Z,100703.16
2023-02-25T22:30:20.800Z,100707.25
2023-02-25T22:32:44.327Z,100712.97
2023-02-25T22:35:08.813Z,100713.09
2023-02-25T22:37:34.733Z,100710.25
2023-02-25T22:39:58.224Z,100722.50
2023-02-25T22:42:21.819Z,100728.88
2023-02-25T22:44:45.765Z,100726.06
2023-02-25T22:47:09.335Z,100727.31
2023-02-25T22:49:32.883Z,100739.00
2023-02-25T22:51:56.440Z,100736.63
2023-02-25T22:54:21.820Z,100745.78
2023-02-25T22:56:46.112Z,100750.13
2023-02-25T22:59:10.320Z,100750.34
2023-02-25T23:01:34.174Z,100751.47
2023-02-25T23:03:58.597Z,100749.00
2023-02-25T23:06:37.434Z,100751.50
2023-02-25T23:09:05.642Z,100762.72
2023-02-25T23:11:35.158Z,100756.13
2023-02-25T23:14:01.139Z,100760.03
2023-02-25T23:16:28.901Z,100766.28
2023-02-25T23:18:53.510Z,100757.66
2023-02-25T23:21:19.765Z,100764.59
2023-02-25T23:23:43.705Z,100773.81
2023-02-25T23:26:09.322Z,100781.19
2023-02-25T23:28:34.413Z,100780.28
2023-02-25T23:30:58.053Z,100776.56
2023-02-25T23:33:21.669Z,100779.88
2023-02-25T23:35:45.281Z,100787.91
2023-02-25T23:38:09.526Z,100788.00
2023-02-25T23:40:33.101Z,100790.25
2023-02-25T23:42:56.743Z,100788.75
2023-02-25T23:45:21.886Z,100799.06
2023-02-25T23:47:45.676Z,100802.19
2023-02-25T23:50:11.892Z,100797.47
2023-02-25T23:52:35.799Z,100807.13
2023-02-25T23:54:59.309Z,100806.75
2023-02-25T23:57:23.003Z,100809.63
2023-02-25T23:59:46.519Z,100810.81
